Time;durP1;ratioP1;P1;durP2;ratioP2;P2;SDS_P1;SDS_P2;PMS_P1;PMS_P2;Temp;Humidity;BMP_temperature;BMP_pressure;BME280_temperature;BME280_humidity;BME280_pressure;Samples;Min_cycle;Max_cycle;Signal;HPM_P1;HPM_P2
2021/07/05 00:00:31;;;;;;;11.63;11.23;;;17.80;99.90;;;;;;5090749;28;20458;-75
2021/07/05 00:02:58;;;;;;;11.47;11.13;;;17.80;99.90;;;;;;5090789;28;20455;-75
2021/07/05 00:05:25;;;;;;;11.80;11.40;;;17.80;99.90;;;;;;5090309;28;21008;-75
2021/07/05 00:07:51;;;;;;;11.93;11.53;;;17.90;99.90;;;;;;5090345;28;20453;-75
2021/07/05 00:10:21;;;;;;;11.80;11.30;;;17.90;99.90;;;;;;5090199;28;20446;-75
2021/07/05 00:12:50;;;;;;;11.83;11.40;;;17.90;99.90;;;;;;5090063;28;20450;-76
2021/07/05 00:15:20;;;;;;;11.47;11.07;;;17.90;99.90;;;;;;5090003;28;20493;-76
2021/07/05 00:17:47;;;;;;;11.07;10.67;;;17.80;99.90;;;;;;5090117;28;20522;-76
2021/07/05 00:20:14;;;;;;;11.10;10.70;;;17.80;99.90;;;;;;5090165;28;20457;-75
2021/07/05 00:22:40;;;;;;;11.83;11.40;;;17.80;99.90;;;;;;5090485;28;20450;-76
2021/07/05 00:25:08;;;;;;;11.83;11.30;;;17.70;99.90;;;;;;5093926;28;20449;-75
2021/07/05 00:27:36;;;;;;;11.53;10.97;;;17.70;99.90;;;;;;5093946;28;20457;-76
2021/07/05 00:30:03;;;;;;;11.30;10.90;;;17.80;99.90;;;;;;5093950;28;20457;-76
2021/07/05 00:32:30;;;;;;;11.70;11.30;;;17.80;99.90;;;;;;5093973;28;20966;-76
2021/07/05 00:34:56;;;;;;;11.40;10.80;;;17.80;99.90;;;;;;5093863;28;20490;-75
2021/07/05 00:37:23;;;;;;;11.57;10.93;;;17.80;99.90;;;;;;5093767;28;20491;-76
2021/07/05 00:39:50;;;;;;;11.30;10.90;;;17.90;99.90;;;;;;5093710;28;20446;-76
2021/07/05 00:42:17;;;;;;;11.30;10.90;;;17.80;99.90;;;;;;5093746;28;20963;-76
2021/07/05 00:44:45;;;;;;;11.70;11.20;;;17.80;99.90;;;;;;5093601;28;20454;-75
2021/07/05 00:47:11;;;;;;;11.00;10.70;;;17.70;99.90;;;;;;5093670;28;20446;-75
2021/07/05 00:49:38;;;;;;;11.27;10.87;;;17.80;99.90;;;;;;5093583;28;20446;-76
2021/07/05 00:52:06;;;;;;;11.73;11.23;;;17.80;99.90;;;;;;5093478;28;20449;-76
2021/07/05 00:54:33;;;;;;;12.30;11.70;;;17.80;99.90;;;;;;5093221;28;21021;-75
2021/07/05 00:57:00;;;;;;;11.80;11.40;;;17.80;99.90;;;;;;5093476;28;20453;-75
2021/07/05 00:59:26;;;;;;;11.73;11.13;;;17.90;99.90;;;;;;5093429;28;20507;-75
2021/07/05 01:01:54;;;;;;;11.90;11.30;;;17.70;99.90;;;;;;5093322;28;20454;-75
2021/07/05 01:04:21;;;;;;;11.97;11.57;;;17.70;99.90;;;;;;5093180;28;20446;-76
2021/07/05 01:06:48;;;;;;;12.50;12.00;;;17.70;99.90;;;;;;5093103;28;20962;-76
2021/07/05 01:09:15;;;;;;;12.20;11.70;;;17.80;99.90;;;;;;5093196;28;20451;-75
2021/07/05 01:11:41;;;;;;;12.10;11.60;;;17.80;99.90;;;;;;5093205;28;20837;-76
2021/07/05 01:14:08;;;;;;;12.13;11.63;;;17.70;99.90;;;;;;5092974;28;20478;-76
2021/07/05 01:16:35;;;;;;;12.40;11.70;;;17.80;99.90;;;;;;5092956;28;20443;-75
2021/07/05 01:19:03;;;;;;;12.20;11.53;;;17.80;99.90;;;;;;5093013;28;20450;-75
2021/07/05 01:21:31;;;;;;;12.10;11.60;;;17.80;99.90;;;;;;5093057;28;20454;-75
2021/07/05 01:23:58;;;;;;;12.10;11.60;;;17.70;99.90;;;;;;5092954;28;20951;-75
2021/07/05 01:26:24;;;;;;;12.47;11.87;;;17.70;99.90;;;;;;5092833;28;20915;-76
2021/07/05 01:28:51;;;;;;;12.17;11.50;;;17.80;99.90;;;;;;5092765;28;20449;-76
2021/07/05 01:31:18;;;;;;;12.37;11.80;;;17.80;99.90;;;;;;5092671;28;20454;-77
2021/07/05 01:33:45;;;;;;;11.73;11.33;;;17.80;99.90;;;;;;5092797;28;20453;-77
2021/07/05 01:36:12;;;;;;;12.00;11.50;;;17.80;99.90;;;;;;5092091;28;20485;-77
2021/07/05 01:38:41;;;;;;;11.80;11.40;;;17.90;99.90;;;;;;5092639;28;20449;-78
2021/07/05 01:41:08;;;;;;;11.53;11.13;;;18.00;99.90;;;;;;5092622;28;20545;-78
2021/07/05 01:43:35;;;;;;;11.67;11.10;;;18.00;99.90;;;;;;5092239;28;20454;-76
2021/07/05 01:46:02;;;;;;;11.70;11.30;;;18.00;99.90;;;;;;5090920;28;20482;-78
2021/07/05 01:48:29;;;;;;;12.60;11.53;;;17.90;99.90;;;;;;5092677;28;20508;-78
2021/07/05 01:50:56;;;;;;;12.20;11.70;;;17.90;99.90;;;;;;5092478;28;20469;-76
2021/07/05 01:53:23;;;;;;;12.20;11.80;;;18.00;99.90;;;;;;5092274;28;20454;-77
2021/07/05 01:55:52;;;;;;;12.07;11.57;;;18.00;99.90;;;;;;5092065;28;20490;-77
2021/07/05 01:58:19;;;;;;;11.60;11.20;;;17.90;99.90;;;;;;5092188;28;20527;-77
2021/07/05 02:00:47;;;;;;;12.63;11.83;;;17.80;99.90;;;;;;5092288;28;20866;-77
2021/07/05 02:03:15;;;;;;;12.27;11.77;;;17.90;99.90;;;;;;5092404;28;20868;-77
2021/07/05 02:05:42;;;;;;;12.70;12.07;;;17.80;99.90;;;;;;5092118;28;20457;-77
2021/07/05 02:08:08;;;;;;;12.53;11.93;;;17.90;99.90;;;;;;5091890;28;20932;-76
2021/07/05 02:10:38;;;;;;;12.17;11.67;;;17.90;99.90;;;;;;5091983;28;20836;-76
2021/07/05 02:13:09;;;;;;;12.97;12.37;;;17.90;99.90;;;;;;5091873;28;20450;-77
2021/07/05 02:15:36;;;;;;;12.60;12.00;;;17.90;99.90;;;;;;5091789;28;20482;-77
2021/07/05 02:18:03;;;;;;;12.80;12.20;;;17.80;99.90;;;;;;5091772;28;20450;-77
2021/07/05 02:20:31;;;;;;;13.20;12.67;;;17.80;99.90;;;;;;5092070;28;20887;-78
2021/07/05 02:22:59;;;;;;;13.10;12.53;;;17.80;99.90;;;;;;5091817;28;20962;-78
2021/07/05 02:25:29;;;;;;;12.30;11.90;;;17.80;99.90;;;;;;5091746;28;20438;-76
2021/07/05 02:27:57;;;;;;;12.13;11.73;;;17.70;99.90;;;;;;5091558;28;20526;-77
2021/07/05 02:30:28;;;;;;;12.07;11.50;;;17.60;99.90;;;;;;5091709;28;20852;-76
2021/07/05 02:32:56;;;;;;;12.33;11.90;;;17.70;99.90;;;;;;5091675;28;20454;-77
2021/07/05 02:35:24;;;;;;;12.47;11.63;;;17.60;99.90;;;;;;5091462;28;20806;-76
2021/07/05 02:37:52;;;;;;;12.93;12.33;;;17.60;99.90;;;;;;5091290;28;20450;-76
2021/07/05 02:40:21;;;;;;;13.63;12.90;;;17.60;99.90;;;;;;5091550;28;20803;-77
2021/07/05 02:42:48;;;;;;;12.87;12.27;;;17.60;99.90;;;;;;5091351;28;20454;-79
2021/07/05 02:45:17;;;;;;;14.00;13.23;;;17.50;99.90;;;;;;5091253;28;20892;-78
2021/07/05 02:47:45;;;;;;;12.40;12.00;;;17.60;99.90;;;;;;5090473;28;20450;-78
2021/07/05 02:50:12;;;;;;;12.37;11.83;;;17.60;99.90;;;;;;5091270;28;20453;-78
2021/07/05 02:52:39;;;;;;;11.83;11.40;;;17.60;99.90;;;;;;5091248;28;20567;-79
2021/07/05 02:55:09;;;;;;;13.13;12.53;;;17.70;99.90;;;;;;5091124;28;20482;-79
2021/07/05 02:57:36;;;;;;;12.50;12.00;;;17.90;99.90;;;;;;5091084;28;20455;-79
2021/07/05 03:00:09;;;;;;;12.20;11.80;;;17.90;99.90;;;;;;5090940;28;20481;-79
2021/07/05 03:02:37;;;;;;;12.07;11.57;;;18.00;99.90;;;;;;5091071;28;20445;-79
2021/07/05 03:05:07;;;;;;;12.87;12.00;;;18.00;99.90;;;;;;5090964;28;20446;-78
2021/07/05 03:07:34;;;;;;;13.60;13.03;;;18.00;99.90;;;;;;5090752;28;20844;-78
2021/07/05 03:10:01;;;;;;;13.80;13.20;;;18.00;99.90;;;;;;5090865;28;20527;-78
2021/07/05 03:12:28;;;;;;;12.70;12.20;;;18.00;99.90;;;;;;5091044;28;20446;-77
2021/07/05 03:14:55;;;;;;;12.50;12.10;;;17.90;99.90;;;;;;5090759;28;20493;-77
2021/07/05 03:17:22;;;;;;;13.57;12.87;;;17.80;99.90;;;;;;5090701;28;20530;-76
2021/07/05 03:19:48;;;;;;;13.50;13.00;;;17.80;99.90;;;;;;5090758;28;20486;-76
2021/07/05 03:22:17;;;;;;;13.67;12.93;;;17.70;99.90;;;;;;5090696;28;20458;-76
2021/07/05 03:24:44;;;;;;;13.53;12.63;;;17.70;99.90;;;;;;5090946;28;20512;-76
2021/07/05 03:27:11;;;;;;;13.50;12.93;;;17.70;99.90;;;;;;5090714;28;20469;-77
2021/07/05 03:29:38;;;;;;;13.97;13.27;;;17.80;99.90;;;;;;5090576;28;20525;-77
2021/07/05 03:32:07;;;;;;;13.23;12.40;;;17.80;99.90;;;;;;5090316;28;20438;-77
2021/07/05 03:34:34;;;;;;;13.27;12.57;;;17.80;99.90;;;;;;5095804;28;20938;-75
2021/07/05 03:37:00;;;;;;;13.20;12.60;;;17.80;99.90;;;;;;5096176;28;20454;-75
2021/07/05 03:39:29;;;;;;;12.80;12.30;;;17.90;99.90;;;;;;5090883;28;20454;-75
2021/07/05 03:41:56;;;;;;;12.80;12.30;;;18.00;99.90;;;;;;5089661;28;20449;-75
2021/07/05 03:44:22;;;;;;;12.53;12.03;;;18.00;99.90;;;;;;5089070;28;20469;-75
2021/07/05 03:46:49;;;;;;;13.47;12.87;;;18.00;99.90;;;;;;5089133;28;20524;-75
2021/07/05 03:49:16;;;;;;;12.80;12.30;;;18.10;99.90;;;;;;5089382;28;20446;-75
2021/07/05 03:51:42;;;;;;;13.40;12.67;;;18.10;99.90;;;;;;5089417;28;20798;-76
2021/07/05 03:54:09;;;;;;;12.63;11.97;;;18.00;99.90;;;;;;5088986;28;20434;-74
2021/07/05 03:56:37;;;;;;;12.93;12.17;;;17.90;99.90;;;;;;5088841;28;20482;-75
2021/07/05 03:59:04;;;;;;;13.80;12.93;;;18.00;99.90;;;;;;5088644;28;20446;-75
2021/07/05 04:01:31;;;;;;;13.40;12.77;;;17.90;99.90;;;;;;5089928;28;20446;-74
2021/07/05 04:03:57;;;;;;;13.07;12.47;;;17.80;99.90;;;;;;5090767;28;20487;-76
2021/07/05 04:06:24;;;;;;;12.17;11.67;;;17.80;99.90;;;;;;5090138;28;20813;-75
2021/07/05 04:08:52;;;;;;;13.00;12.40;;;17.80;99.90;;;;;;5090291;28;20831;-75
2021/07/05 04:11:19;;;;;;;14.07;13.37;;;17.80;99.90;;;;;;5090115;28;20559;-75
2021/07/05 04:13:47;;;;;;;13.60;12.97;;;17.70;99.90;;;;;;5089285;28;20833;-75
2021/07/05 04:16:13;;;;;;;12.83;12.27;;;17.80;99.90;;;;;;5089066;28;20481;-75
2021/07/05 04:18:40;;;;;;;18.57;17.17;;;17.80;99.90;;;;;;5088919;28;20454;-75
2021/07/05 04:21:07;;;;;;;15.37;14.40;;;17.80;99.90;;;;;;5086253;28;20454;-75
2021/07/05 04:23:34;;;;;;;15.80;14.70;;;17.80;99.90;;;;;;5088922;28;20469;-76
2021/07/05 04:26:02;;;;;;;16.07;14.97;;;17.80;99.90;;;;;;5088865;28;20779;-76
2021/07/05 04:28:29;;;;;;;18.23;17.00;;;17.80;99.90;;;;;;5088948;28;20446;-75
2021/07/05 04:30:57;;;;;;;18.03;16.70;;;17.90;99.90;;;;;;5088840;28;20439;-75
2021/07/05 04:33:25;;;;;;;16.33;15.30;;;17.80;99.90;;;;;;5088469;28;20454;-75
2021/07/05 04:35:51;;;;;;;19.03;17.47;;;17.80;99.90;;;;;;5088513;28;21132;-74
2021/07/05 04:38:18;;;;;;;14.47;13.47;;;17.80;99.90;;;;;;5088873;28;20461;-75
2021/07/05 04:40:46;;;;;;;21.57;19.47;;;17.80;99.90;;;;;;5088932;28;20446;-76
2021/07/05 04:43:13;;;;;;;20.47;18.97;;;17.80;99.90;;;;;;5088767;28;20487;-75
2021/07/05 04:45:42;;;;;;;16.53;15.40;;;17.90;99.90;;;;;;5088196;28;20478;-75
2021/07/05 04:48:12;;;;;;;16.93;15.50;;;17.90;99.90;;;;;;5086073;28;20434;-75
2021/07/05 04:50:39;;;;;;;14.37;13.57;;;18.10;99.90;;;;;;5088700;28;20558;-75
2021/07/05 04:53:06;;;;;;;14.77;13.70;;;18.20;99.90;;;;;;5089768;28;20450;-75
2021/07/05 04:55:33;;;;;;;17.07;15.83;;;18.10;99.90;;;;;;5089704;28;21035;-74
2021/07/05 04:58:01;;;;;;;13.07;12.47;;;18.10;99.90;;;;;;5089794;28;20507;-74
2021/07/05 05:00:31;;;;;;;14.20;13.40;;;18.10;99.90;;;;;;5090052;28;20936;-75
2021/07/05 05:02:58;;;;;;;13.37;12.70;;;18.20;99.90;;;;;;5089758;28;20446;-75
2021/07/05 05:05:26;;;;;;;13.27;12.70;;;18.20;99.90;;;;;;5090022;28;20439;-75
2021/07/05 05:07:52;;;;;;;14.23;13.23;;;18.30;99.90;;;;;;5089791;28;20450;-74
2021/07/05 05:10:20;;;;;;;13.40;12.80;;;18.40;99.90;;;;;;5091074;28;20454;-75
2021/07/05 05:12:47;;;;;;;12.27;11.87;;;18.60;99.90;;;;;;5093553;28;20438;-74
2021/07/05 05:15:15;;;;;;;12.30;11.80;;;18.70;99.90;;;;;;5093661;28;20449;-75
2021/07/05 05:17:42;;;;;;;12.77;11.70;;;18.70;99.90;;;;;;5093394;28;20446;-74
2021/07/05 05:20:10;;;;;;;12.07;11.53;;;18.70;99.90;;;;;;5093244;28;20836;-75
2021/07/05 05:22:39;;;;;;;12.57;11.80;;;18.70;99.90;;;;;;5093106;28;20447;-75
2021/07/05 05:25:09;;;;;;;13.70;13.00;;;18.80;99.90;;;;;;5092949;28;20446;-76
2021/07/05 05:27:36;;;;;;;12.67;11.87;;;18.80;99.90;;;;;;5093285;28;20449;-75
2021/07/05 05:30:05;;;;;;;12.73;12.03;;;19.10;99.90;;;;;;5093036;28;20457;-75
2021/07/05 05:32:32;;;;;;;13.03;12.27;;;19.30;99.90;;;;;;5093117;28;20454;-76
2021/07/05 05:34:59;;;;;;;14.40;13.37;;;19.50;99.90;;;;;;5093169;28;20488;-75
2021/07/05 05:37:25;;;;;;;12.80;12.10;;;19.50;99.90;;;;;;5092595;28;20505;-75
2021/07/05 05:39:53;;;;;;;13.73;12.43;;;19.50;99.90;;;;;;5092717;28;20454;-77
2021/07/05 05:42:20;;;;;;;13.53;12.93;;;19.60;99.90;;;;;;5092812;28;20454;-77
2021/07/05 05:44:47;;;;;;;13.30;12.60;;;19.70;99.90;;;;;;5092692;28;20711;-76
2021/07/05 05:47:14;;;;;;;12.77;12.07;;;19.80;99.90;;;;;;5092699;28;20503;-76
2021/07/05 05:49:41;;;;;;;12.63;12.13;;;19.80;99.90;;;;;;5092775;28;20454;-77
2021/07/05 05:52:08;;;;;;;13.10;12.20;;;19.70;99.90;;;;;;5092403;28;20445;-77
2021/07/05 05:54:35;;;;;;;11.87;11.27;;;19.60;99.90;;;;;;5092567;28;20515;-78
2021/07/05 05:57:04;;;;;;;12.17;11.67;;;19.70;99.90;;;;;;5092354;28;20486;-78
2021/07/05 05:59:33;;;;;;;11.87;11.20;;;19.70;99.90;;;;;;5092493;28;20940;-78
2021/07/05 06:02:00;;;;;;;11.87;11.47;;;19.60;99.90;;;;;;5092669;28;20804;-75
2021/07/05 06:04:26;;;;;;;11.70;11.20;;;19.60;99.90;;;;;;5092369;28;20446;-75
2021/07/05 06:06:53;;;;;;;10.90;10.50;;;19.50;99.90;;;;;;5092173;28;20439;-78
2021/07/05 06:09:20;;;;;;;12.60;11.80;;;19.40;99.90;;;;;;5092402;28;20800;-74
2021/07/05 06:11:46;;;;;;;11.90;11.20;;;19.40;99.90;;;;;;5092472;28;20454;-73
2021/07/05 06:14:14;;;;;;;11.77;11.37;;;19.60;99.90;;;;;;5092252;28;20861;-74
2021/07/05 06:16:41;;;;;;;12.23;11.73;;;19.60;99.90;;;;;;5091821;28;20509;-75
2021/07/05 06:19:08;;;;;;;12.60;11.90;;;19.50;99.90;;;;;;5091765;28;20442;-74
2021/07/05 06:21:35;;;;;;;12.63;11.90;;;19.50;99.90;;;;;;5091667;28;20450;-74
2021/07/05 06:24:01;;;;;;;12.33;11.77;;;19.40;99.90;;;;;;5091820;28;20446;-75
2021/07/05 06:26:28;;;;;;;12.33;11.73;;;19.30;99.90;;;;;;5092130;28;20445;-75
2021/07/05 06:28:55;;;;;;;13.50;12.67;;;19.20;99.90;;;;;;5091518;28;20450;-75
2021/07/05 06:31:23;;;;;;;13.30;12.70;;;19.30;99.90;;;;;;5091515;28;20519;-75
2021/07/05 06:33:50;;;;;;;12.97;12.07;;;19.40;99.90;;;;;;5090885;28;20533;-74
2021/07/05 06:36:17;;;;;;;13.37;12.27;;;19.40;99.90;;;;;;5091131;28;20477;-75
2021/07/05 06:38:44;;;;;;;12.20;11.60;;;19.40;99.90;;;;;;5091450;28;20473;-73
2021/07/05 06:41:10;;;;;;;12.37;11.87;;;19.20;99.90;;;;;;5091126;28;20457;-73
2021/07/05 06:43:37;;;;;;;12.50;11.77;;;19.20;99.90;;;;;;5091031;28;20442;-73
2021/07/05 06:46:04;;;;;;;12.00;11.50;;;19.10;99.90;;;;;;5090956;28;20486;-73
2021/07/05 06:48:32;;;;;;;12.27;11.77;;;19.00;99.90;;;;;;5091334;28;20462;-73
2021/07/05 06:50:58;;;;;;;12.63;12.00;;;19.20;99.90;;;;;;5091233;28;20442;-73
2021/07/05 06:53:26;;;;;;;11.90;11.20;;;19.40;99.90;;;;;;5090950;28;20461;-74
2021/07/05 06:55:52;;;;;;;13.30;12.80;;;19.30;99.90;;;;;;5090932;28;20457;-73
2021/07/05 06:58:19;;;;;;;13.33;12.93;;;19.30;99.90;;;;;;5091075;28;20501;-73
2021/07/05 07:00:46;;;;;;;14.67;14.03;;;19.30;99.90;;;;;;5091079;28;20442;-73
2021/07/05 07:03:13;;;;;;;14.60;13.90;;;19.40;99.90;;;;;;5088974;28;20477;-74
2021/07/05 07:05:41;;;;;;;12.57;12.07;;;19.50;99.90;;;;;;5098995;28;20853;-72
2021/07/05 07:08:08;;;;;;;14.60;13.53;;;19.60;99.90;;;;;;5104169;28;21219;-73
2021/07/05 07:10:35;;;;;;;14.80;14.20;;;19.90;99.90;;;;;;5090926;28;20450;-73
2021/07/05 07:13:01;;;;;;;13.93;13.13;;;19.90;99.90;;;;;;5096108;28;20865;-72
2021/07/05 07:15:33;;;;;;;14.10;13.50;;;19.80;99.90;;;;;;5090214;28;20795;-72
2021/07/05 07:18:03;;;;;;;14.57;13.87;;;19.60;99.90;;;;;;5090716;28;20987;-72
2021/07/05 07:20:30;;;;;;;16.03;15.40;;;19.70;99.90;;;;;;5090643;28;20442;-72
2021/07/05 07:22:58;;;;;;;16.23;15.20;;;19.90;99.90;;;;;;5090766;28;20450;-72
2021/07/05 07:25:25;;;;;;;15.43;14.87;;;19.90;99.90;;;;;;5090539;28;20959;-72
2021/07/05 07:27:52;;;;;;;15.80;15.20;;;20.00;99.90;;;;;;5090623;28;21183;-72
2021/07/05 07:30:20;;;;;;;16.60;15.90;;;19.80;99.90;;;;;;5090679;28;20446;-71
2021/07/05 07:32:47;;;;;;;17.00;16.20;;;19.90;99.90;;;;;;5090154;28;20989;-72
2021/07/05 07:35:16;;;;;;;16.80;16.20;;;20.00;99.90;;;;;;5090796;28;20450;-71
2021/07/05 07:37:44;;;;;;;16.20;15.37;;;20.00;99.90;;;;;;5090235;28;20526;-72
2021/07/05 07:40:18;;;;;;;16.10;15.40;;;20.00;99.90;;;;;;5090354;28;20468;-72
2021/07/05 07:42:46;;;;;;;15.97;15.37;;;19.90;99.90;;;;;;5090936;28;20955;-72
2021/07/05 07:45:14;;;;;;;15.63;15.03;;;19.80;99.90;;;;;;5090381;28;20523;-73
2021/07/05 07:47:41;;;;;;;14.90;14.30;;;19.80;99.90;;;;;;5090474;28;20454;-73
2021/07/05 07:50:11;;;;;;;13.73;13.23;;;19.70;99.90;;;;;;5090271;28;20515;-73
2021/07/05 07:52:38;;;;;;;14.17;13.43;;;19.80;99.90;;;;;;5090401;28;21132;-73
2021/07/05 07:55:07;;;;;;;13.90;13.20;;;20.00;99.90;;;;;;5090616;28;20457;-73
2021/07/05 07:57:35;;;;;;;13.70;13.20;;;20.30;99.90;;;;;;5090060;28;20493;-73
2021/07/05 08:00:02;;;;;;;13.63;13.13;;;20.40;99.90;;;;;;5090430;28;20446;-72
2021/07/05 08:02:29;;;;;;;14.40;13.80;;;20.50;99.90;;;;;;5090456;28;20465;-72
2021/07/05 08:04:55;;;;;;;13.77;13.13;;;20.80;99.90;;;;;;5088934;28;20492;-72
2021/07/05 08:07:22;;;;;;;14.23;13.57;;;20.90;99.90;;;;;;5088422;28;20473;-72
2021/07/05 08:09:49;;;;;;;13.83;13.30;;;20.90;99.90;;;;;;5090450;28;20458;-71
2021/07/05 08:12:15;;;;;;;14.70;14.10;;;21.00;99.90;;;;;;5090674;28;20508;-71
2021/07/05 08:14:43;;;;;;;14.60;14.07;;;20.80;99.90;;;;;;5090766;28;20446;-72
2021/07/05 08:17:10;;;;;;;15.73;14.90;;;20.50;99.90;;;;;;5090564;28;20543;-71
2021/07/05 08:19:37;;;;;;;14.57;13.87;;;20.40;99.90;;;;;;5090491;28;20454;-71
2021/07/05 08:22:04;;;;;;;15.57;14.77;;;20.50;99.90;;;;;;5090513;28;20873;-72
2021/07/05 08:24:31;;;;;;;15.07;14.47;;;20.30;99.90;;;;;;5090731;28;20458;-71
2021/07/05 08:26:58;;;;;;;15.10;14.30;;;20.20;99.90;;;;;;5090817;28;20430;-71
2021/07/05 08:29:25;;;;;;;16.83;16.03;;;20.20;99.90;;;;;;5090475;28;20461;-71
2021/07/05 08:31:53;;;;;;;18.43;17.73;;;20.10;99.90;;;;;;5090570;28;20508;-71
2021/07/05 08:34:20;;;;;;;18.47;17.50;;;20.50;99.90;;;;;;5090551;28;20869;-70
2021/07/05 08:36:46;;;;;;;18.60;17.73;;;20.40;99.90;;;;;;5090516;28;20482;-71
2021/07/05 08:39:14;;;;;;;19.20;18.40;;;20.00;99.90;;;;;;5090743;28;20450;-71
2021/07/05 08:41:40;;;;;;;19.93;19.00;;;20.10;99.90;;;;;;5090622;28;20508;-71
2021/07/05 08:44:07;;;;;;;17.50;16.80;;;20.30;99.90;;;;;;5090643;28;20858;-72
2021/07/05 08:46:34;;;;;;;17.60;17.00;;;20.30;99.90;;;;;;5093560;28;20539;-71
2021/07/05 08:49:04;;;;;;;18.40;17.67;;;20.20;99.90;;;;;;5094253;28;20503;-71
2021/07/05 08:51:31;;;;;;;18.50;17.67;;;19.90;99.90;;;;;;5094529;28;20460;-71
2021/07/05 08:53:57;;;;;;;17.40;16.80;;;19.80;99.90;;;;;;5093867;28;20454;-71
2021/07/05 08:56:27;;;;;;;17.77;17.07;;;20.00;99.90;;;;;;5093254;28;20454;-71
2021/07/05 08:58:54;;;;;;;21.97;20.30;;;20.10;99.90;;;;;;5092159;28;20821;-71
2021/07/05 09:01:21;;;;;;;18.50;17.80;;;20.00;99.90;;;;;;5093481;28;20477;-71
2021/07/05 09:03:50;;;;;;;19.20;18.27;;;19.90;99.90;;;;;;5093526;28;20453;-71
2021/07/05 09:06:20;;;;;;;18.20;17.37;;;20.00;99.90;;;;;;5093227;28;20989;-70
2021/07/05 09:09:09;;;;;;;17.13;16.43;;;19.90;99.90;;;;;;5093713;28;20523;-70
2021/07/05 09:11:40;;;;;;;17.00;16.40;;;20.00;99.90;;;;;;5091431;28;20473;-70
2021/07/05 09:14:12;;;;;;;18.07;17.47;;;20.20;99.90;;;;;;5093016;28;20454;-71
2021/07/05 09:16:39;;;;;;;17.83;17.13;;;20.30;99.90;;;;;;5093389;28;20488;-71
2021/07/05 09:19:16;;;;;;;18.50;17.67;;;20.50;99.90;;;;;;5093341;28;20453;-70
2021/07/05 09:21:48;;;;;;;17.47;16.87;;;20.70;99.90;;;;;;5093347;28;20936;-70
2021/07/05 09:24:15;;;;;;;16.50;15.90;;;20.30;99.90;;;;;;5093211;28;20454;-70
2021/07/05 09:26:45;;;;;;;16.37;15.70;;;20.00;99.90;;;;;;5093115;28;20905;-70
2021/07/05 09:29:21;;;;;;;17.10;16.27;;;20.00;99.90;;;;;;5093009;28;20447;-70
2021/07/05 09:31:52;;;;;;;15.53;15.03;;;20.30;99.90;;;;;;5093057;28;20450;-70
2021/07/05 09:34:21;;;;;;;15.20;14.13;;;20.20;99.90;;;;;;5092840;28;20858;-70
2021/07/05 09:36:52;;;;;;;13.10;12.60;;;20.40;99.90;;;;;;5092635;28;20555;-70
2021/07/05 09:39:21;;;;;;;12.70;12.20;;;20.50;99.90;;;;;;5092819;28;20565;-70
2021/07/05 09:41:50;;;;;;;12.90;12.50;;;20.50;99.90;;;;;;5091162;28;20446;-70
2021/07/05 09:44:19;;;;;;;13.13;12.63;;;20.60;99.90;;;;;;5090782;28;20522;-70
2021/07/05 09:46:48;;;;;;;13.00;12.50;;;20.70;99.90;;;;;;5092401;28;20482;-70
2021/07/05 09:49:18;;;;;;;13.37;12.87;;;20.80;99.90;;;;;;5092913;28;20959;-71
2021/07/05 09:51:47;;;;;;;13.37;12.97;;;20.80;99.90;;;;;;5092628;28;20454;-71
2021/07/05 09:54:23;;;;;;;13.00;12.50;;;21.00;99.90;;;;;;5092977;28;20446;-70
2021/07/05 09:56:53;;;;;;;14.00;13.50;;;20.70;99.90;;;;;;5092196;28;20863;-71
2021/07/05 09:59:22;;;;;;;13.37;12.70;;;20.40;99.90;;;;;;5092637;28;20541;-71
2021/07/05 10:01:50;;;;;;;11.57;11.27;;;20.20;99.90;;;;;;5092465;28;20469;-71
2021/07/05 10:04:24;;;;;;;12.70;12.20;;;20.00;99.90;;;;;;5092496;28;20450;-70
2021/07/05 10:06:52;;;;;;;13.00;12.50;;;20.00;99.90;;;;;;5092207;28;20466;-70
2021/07/05 10:09:30;;;;;;;13.33;12.83;;;20.00;99.90;;;;;;5092485;28;20826;-71
2021/07/05 10:12:19;;;;;;;12.10;11.60;;;19.90;99.90;;;;;;5092650;28;20453;-71
2021/07/05 10:14:54;;;;;;;13.47;12.97;;;19.90;99.90;;;;;;5092549;28;20470;-70
2021/07/05 10:17:21;;;;;;;14.13;13.53;;;19.70;99.90;;;;;;5092287;28;20488;-70
2021/07/05 10:19:48;;;;;;;14.27;13.67;;;19.70;99.90;;;;;;5092298;28;20454;-71
2021/07/05 10:22:16;;;;;;;12.93;12.53;;;19.70;99.90;;;;;;5092336;28;20454;-71
2021/07/05 10:24:46;;;;;;;12.50;12.00;;;19.60;99.90;;;;;;5092246;28;20498;-71
2021/07/05 10:27:14;;;;;;;11.70;11.30;;;19.60;99.90;;;;;;5092278;28;20948;-71
2021/07/05 10:29:42;;;;;;;12.53;12.03;;;19.50;99.90;;;;;;5092137;28;20457;-71
2021/07/05 10:32:10;;;;;;;12.47;11.97;;;19.30;99.90;;;;;;5092067;28;20450;-70
2021/07/05 10:34:38;;;;;;;13.40;12.80;;;19.30;99.90;;;;;;5091993;28;20805;-70
2021/07/05 10:37:10;;;;;;;12.70;12.03;;;19.60;99.90;;;;;;5091776;28;20482;-71
2021/07/05 10:39:37;;;;;;;13.03;12.53;;;19.70;99.90;;;;;;5092152;28;20458;-71
2021/07/05 10:42:36;;;;;;;12.37;11.63;;;20.00;99.90;;;;;;5091912;28;20508;-71
2021/07/05 10:45:07;;;;;;;12.33;11.87;;;20.30;99.90;;;;;;5091757;28;20486;-71
2021/07/05 10:47:46;;;;;;;13.93;13.03;;;20.40;99.90;;;;;;5091820;28;20454;-71
2021/07/05 10:50:46;;;;;;;13.33;12.77;;;20.30;99.90;;;;;;5091863;28;20545;-71
2021/07/05 10:53:14;;;;;;;13.27;12.77;;;20.50;99.90;;;;;;5091931;28;20481;-71
2021/07/05 10:55:43;;;;;;;13.97;13.10;;;20.40;99.90;;;;;;5091673;28;20875;-72
2021/07/05 10:58:28;;;;;;;13.53;13.10;;;20.30;99.90;;;;;;5091707;28;20485;-71
2021/07/05 11:00:56;;;;;;;13.33;12.83;;;20.70;99.90;;;;;;5091559;28;20449;-71
2021/07/05 11:03:44;;;;;;;13.17;12.67;;;20.80;99.90;;;;;;5091620;28;20555;-72
2021/07/05 11:06:43;;;;;;;12.97;12.40;;;21.00;99.90;;;;;;5091477;28;20449;-71
2021/07/05 11:09:11;;;;;;;12.60;12.20;;;20.90;99.90;;;;;;5091096;28;20442;-72
2021/07/05 11:11:47;;;;;;;12.90;12.47;;;21.00;99.90;;;;;;5091577;28;20450;-71
2021/07/05 11:14:21;;;;;;;13.73;12.93;;;21.00;99.90;;;;;;5091539;28;20449;-72
2021/07/05 11:16:58;;;;;;;13.30;12.80;;;21.30;99.90;;;;;;5091506;28;20876;-71
2021/07/05 11:19:38;;;;;;;12.40;11.90;;;21.00;99.90;;;;;;5091285;28;20452;-72
2021/07/05 11:22:20;;;;;;;13.30;12.70;;;21.10;99.90;;;;;;5091377;28;20446;-74
2021/07/05 11:24:52;;;;;;;13.30;12.70;;;21.20;99.90;;;;;;5091194;28;20450;-72
2021/07/05 11:27:52;;;;;;;13.20;12.60;;;21.10;99.90;;;;;;5091106;28;20445;-72
2021/07/05 11:30:39;;;;;;;13.03;12.40;;;21.40;99.90;;;;;;5090883;28;20482;-71
2021/07/05 11:33:25;;;;;;;11.53;11.13;;;21.40;99.90;;;;;;5090853;28;20452;-71
2021/07/05 11:35:54;;;;;;;13.90;13.03;;;21.20;99.90;;;;;;5090523;28;20434;-71
2021/07/05 11:38:31;;;;;;;13.87;13.27;;;21.40;99.90;;;;;;5090633;28;20544;-72
2021/07/05 11:41:01;;;;;;;12.70;12.20;;;21.30;99.90;;;;;;5091012;28;20453;-72
2021/07/05 11:43:56;;;;;;;14.07;13.37;;;21.20;99.90;;;;;;5090787;28;20450;-72
2021/07/05 11:46:52;;;;;;;12.63;12.13;;;21.30;99.90;;;;;;5037533;28;20496;-72
2021/07/05 11:49:25;;;;;;;14.47;13.37;;;21.10;99.90;;;;;;5050296;28;20938;-72
2021/07/05 11:51:54;;;;;;;12.57;12.07;;;21.00;99.90;;;;;;5050386;28;20502;-75
2021/07/05 11:54:24;;;;;;;12.73;12.20;;;20.90;99.90;;;;;;5050668;28;20448;-74
2021/07/05 11:56:52;;;;;;;12.90;12.20;;;20.80;99.90;;;;;;5050720;28;20475;-73
2021/07/05 11:59:21;;;;;;;13.50;12.37;;;20.80;99.90;;;;;;5050515;28;20537;-73
2021/07/05 12:01:54;;;;;;;11.90;11.30;;;20.90;99.90;;;;;;5050989;28;21028;-72
2021/07/05 12:04:27;;;;;;;11.90;11.20;;;21.10;99.90;;;;;;5050300;28;20582;-74
2021/07/05 12:06:54;;;;;;;13.00;12.60;;;21.30;99.90;;;;;;5048445;28;20452;-72
2021/07/05 12:09:29;;;;;;;12.53;11.77;;;21.60;99.90;;;;;;5049957;28;20905;-75
2021/07/05 12:11:58;;;;;;;13.30;12.80;;;21.60;99.90;;;;;;5050096;28;20886;-75
2021/07/05 12:14:26;;;;;;;13.37;12.77;;;21.90;99.90;;;;;;5050084;28;20455;-75
2021/07/05 12:16:56;;;;;;;13.13;12.60;;;22.20;99.90;;;;;;5050208;28;20578;-75
2021/07/05 12:19:25;;;;;;;11.57;11.03;;;22.20;99.90;;;;;;5051566;28;20623;-75
2021/07/05 12:21:54;;;;;;;11.80;11.30;;;22.10;99.90;;;;;;5054043;28;20452;-75
2021/07/05 12:24:26;;;;;;;11.67;11.27;;;22.00;99.90;;;;;;5054051;28;20459;-75
2021/07/05 12:26:56;;;;;;;11.97;11.57;;;22.10;99.90;;;;;;5054097;28;20458;-75
2021/07/05 12:29:26;;;;;;;12.00;11.50;;;22.10;99.90;;;;;;5054014;28;20448;-73
2021/07/05 12:31:59;;;;;;;12.37;11.77;;;21.90;99.90;;;;;;5053355;28;20467;-75
2021/07/05 12:34:55;;;;;;;11.80;11.40;;;21.70;99.90;;;;;;5051677;28;20518;-75
2021/07/05 12:37:34;;;;;;;13.20;12.27;;;21.70;99.90;;;;;;5051953;28;20467;-76